Terminal Aerodrome Forecast
Issued by NWS Pueblo, CO

Home | Current Version | Previous Version | Text Only | Print | Product List | Glossary On
Versions: 1 2 3 4 5 6 7 8 9 10 11 12
000
FTUS45 KPUB 310522
TAFCOS
TAF
KCOS 310522Z 3106/0106 11006KT P6SM FEW200
     FM310800 06007KT P6SM FEW200
     FM311800 16014KT P6SM FEW140 SCT200
      TEMPO 3119/3123 17015G25KT
     FM010100 15008KT P6SM SCT200
     FM010300 08008KT P6SM SCT200=

USA.gov is the U.S. government's official web portal to all federal, state and local government web resources and services.